UMOO

Mogilev Airport

Mogilev, Belarus
TAF UMOO 171100Z 1711/1721 15005G10MPS 5000 DRSN BR BKN005 TEMPO 1711/1721 13007G12MPS 2100 -SHSN BR OVC003 SCT010CB
Issued Valid From Valid To
Dec-17 @ 11:00 UTC
(2 hours ago)
Dec-17 @ 11:00 UTC
(2 hours ago)
Dec-17 @ 21:00 UTC
(in 8 hours)
Dec-17 @ 11:00 to Dec-17 @ 21:00
TAF UMOO 171100Z 1711/1721 15005G10MPS 5000 DRSN BR BKN005
Wind Visibility Clouds Conditions
150° at 10 knots
 Gusting to 19 knots
5,005 meters
  • Broken at 500' AGL
  • Low drifting
  • Snow
  • Mist
Temporary Dec-17 @ 11:00 to Dec-17 @ 21:00
TEMPO 1711/1721 13007G12MPS 2100 -SHSN BR OVC003 SCT010CB
Wind Visibility Clouds Conditions
130° at 14 knots
 Gusting to 23 knots
2,092 meters
  • Overcast at 300' AGL
  • Scattered at 1,000' AGL
  • Light Snow
  • Mist
TAF UMOO 171100Z 1711/1721 15005G10MPS 5000 DRSN BR BKN005 TEMPO 1711/1721 13007G12MPS 2100 -SHSN BR OVC003 SCT010CB
Issued Dec-17 @ 11:00 UTC
(2 hours ago)
Valid From Dec-17 @ 11:00 UTC
(2 hours ago)
Valid To Dec-17 @ 21:00 UTC
(in 8 hours)
Dec-17 @ 11:00 - Dec-17 @ 21:00
Wind Visibility
150° at 10 knots
 Gusting to 19 knots
5,005 meters
Clouds
  • Broken at 500' AGL
Conditions
  • Low drifting
  • Snow
  • Mist
Temporary Dec-17 @ 11:00 - Dec-17 @ 21:00
Wind Visibility
130° at 14 knots
 Gusting to 23 knots
2,092 meters
Clouds
  • Overcast at 300' AGL
  • Scattered at 1,000' AGL
Conditions
  • Light Snow
  • Mist